Time;durP1;ratioP1;P1;durP2;ratioP2;P2;SDS_P1;SDS_P2;PMS_P1;PMS_P2;Temp;Humidity;BMP_temperature;BMP_pressure;BME280_temperature;BME280_humidity;BME280_pressure;Samples;Min_cycle;Max_cycle;Signal;HPM_P1;HPM_P2
2021/04/20 00:01:18;;;;;;;;;;;;;;;10.06;80.75;100554.42;1762045;81;20510;-79
2021/04/20 00:03:50;;;;;;;;;;;;;;;10.05;80.73;100553.59;1763804;81;20255;-78
2021/04/20 00:06:20;;;;;;;;;;;;;;;10.03;80.60;100553.33;1762547;81;20175;-79
2021/04/20 00:08:47;;;;;;;;;;;;;;;10.04;80.63;100551.11;1761725;81;21148;-78
2021/04/20 00:11:19;;;;;;;;;;;;;;;10.05;80.57;100552.78;1761596;81;20537;-77
2021/04/20 00:13:48;;;;;;;;;;;;;;;10.04;80.54;100544.17;1761629;81;20247;-78
2021/04/20 00:16:16;;;;;;;;;;;;;;;10.06;80.48;100542.75;1761851;81;20863;-79
2021/04/20 00:18:44;;;;;;;;;;;;;;;10.07;80.42;100547.02;1761588;81;20152;-80
2021/04/20 00:21:13;;;;;;;;;;;;;;;10.08;80.43;100537.83;1761703;81;21369;-78
2021/04/20 00:23:41;;;;;;;;;;;;;;;10.08;80.42;100537.83;1761564;81;20192;-78
2021/04/20 00:26:08;;;;;;;;;;;;;;;10.06;80.56;100537.11;1756678;81;20529;-78
2021/04/20 00:28:39;;;;;;;;;;;;;;;10.06;80.61;100536.27;1754875;81;20870;-78
2021/04/20 00:31:10;;;;;;;;;;;;;;;10.07;80.70;100530.17;1754828;81;20248;-78
2021/04/20 00:33:41;;;;;;;;;;;;;;;10.09;80.73;100531.72;1755397;81;20522;-78
2021/04/20 00:36:10;;;;;;;;;;;;;;;10.07;80.75;100527.11;1755268;81;20518;-79
2021/04/20 00:38:38;;;;;;;;;;;;;;;10.07;80.79;100526.28;1730157;81;20266;-78
2021/04/20 00:41:08;;;;;;;;;;;;;;;10.05;80.90;100528.16;1756598;81;20184;-78
2021/04/20 00:43:38;;;;;;;;;;;;;;;10.04;81.07;100526.02;1757277;81;20263;-77
2021/04/20 00:46:17;;;;;;;;;;;;;;;10.05;81.17;100522.97;1757272;81;21129;-78
2021/04/20 00:48:46;;;;;;;;;;;;;;;10.05;81.21;100522.47;1755695;81;20299;-78
2021/04/20 00:51:15;;;;;;;;;;;;;;;10.04;81.23;100514.35;1755628;81;20558;-79
2021/04/20 00:53:42;;;;;;;;;;;;;;;10.03;81.27;100513.98;1756529;81;20145;-78
2021/04/20 00:56:10;;;;;;;;;;;;;;;10.01;81.37;100517.15;1730022;81;20246;-78
2021/04/20 00:58:38;;;;;;;;;;;;;;;9.98;81.45;100503.55;1755236;81;22161;-77
2021/04/20 01:01:08;;;;;;;;;;;;;;;9.96;81.56;100505.40;1755144;81;20550;-77
2021/04/20 01:03:36;;;;;;;;;;;;;;;9.95;81.61;100504.59;1755627;81;20208;-78
2021/04/20 01:06:03;;;;;;;;;;;;;;;9.93;81.65;100496.07;1755688;81;20291;-78
2021/04/20 01:08:31;;;;;;;;;;;;;;;9.92;81.84;100492.30;1755331;81;20503;-77
2021/04/20 01:11:01;;;;;;;;;;;;;;;9.90;82.00;100495.44;1755051;81;22136;-78
2021/04/20 01:13:32;;;;;;;;;;;;;;;9.87;82.22;100486.11;1754689;81;20184;-78
2021/04/20 01:15:59;;;;;;;;;;;;;;;9.84;82.21;100485.02;1755230;81;20216;-78
2021/04/20 01:18:30;;;;;;;;;;;;;;;9.83;82.34;100485.94;1754898;81;20263;-78
2021/04/20 01:21:07;;;;;;;;;;;;;;;9.86;82.43;100485.73;1756390;81;20268;-78
2021/04/20 01:24:01;;;;;;;;;;;;;;;9.88;82.27;100485.65;1756518;81;21202;-78
2021/04/20 01:26:31;;;;;;;;;;;;;;;9.87;82.27;100478.33;1759931;81;20670;-78
2021/04/20 01:29:00;;;;;;;;;;;;;;;9.87;82.36;100478.33;1761614;81;20267;-78
2021/04/20 01:31:29;;;;;;;;;;;;;;;9.88;82.33;100479.17;1761790;81;20593;-77
2021/04/20 01:33:57;;;;;;;;;;;;;;;9.88;82.35;100470.94;1761618;81;20268;-77
2021/04/20 01:36:26;;;;;;;;;;;;;;;9.88;82.28;100468.34;1761603;81;21198;-77
2021/04/20 01:38:55;;;;;;;;;;;;;;;9.88;82.39;100471.39;1761581;81;20133;-77
2021/04/20 01:41:24;;;;;;;;;;;;;;;9.83;82.50;100469.09;1761884;81;20502;-78
2021/04/20 01:43:53;;;;;;;;;;;;;;;9.82;82.69;100470.50;1761628;81;20521;-77
2021/04/20 01:46:22;;;;;;;;;;;;;;;9.82;82.94;100474.39;1761552;81;20300;-77
2021/04/20 01:48:51;;;;;;;;;;;;;;;9.83;83.08;100467.80;1761617;81;21190;-78
2021/04/20 01:51:20;;;;;;;;;;;;;;;9.85;83.17;100472.44;1761355;81;20191;-77
2021/04/20 01:53:49;;;;;;;;;;;;;;;9.86;83.39;100471.48;1761655;81;20165;-77
2021/04/20 01:56:17;;;;;;;;;;;;;;;9.86;83.51;100466.79;1761662;81;20278;-78
2021/04/20 01:58:45;;;;;;;;;;;;;;;9.84;83.63;100464.28;1761731;81;20251;-78
2021/04/20 02:01:16;;;;;;;;;;;;;;;9.84;83.75;100458.27;1764963;81;21199;-78
2021/04/20 02:03:45;;;;;;;;;;;;;;;9.84;84.01;100455.67;1762719;81;20525;-78
2021/04/20 02:06:13;;;;;;;;;;;;;;;9.84;84.21;100450.03;1761692;81;20807;-77
2021/04/20 02:08:43;;;;;;;;;;;;;;;9.83;84.43;100456.13;1761783;81;20538;-79
2021/04/20 02:11:13;;;;;;;;;;;;;;;9.81;84.74;100450.70;1761776;81;20283;-77
2021/04/20 02:13:42;;;;;;;;;;;;;;;9.79;84.84;100452.11;1761716;81;21374;-78
2021/04/20 02:16:10;;;;;;;;;;;;;;;9.77;85.26;100448.77;1761788;81;20176;-78
2021/04/20 02:18:40;;;;;;;;;;;;;;;9.77;85.66;100447.93;1761847;81;20557;-77
2021/04/20 02:21:12;;;;;;;;;;;;;;;9.72;86.00;100439.19;1761574;81;20247;-77
2021/04/20 02:23:42;;;;;;;;;;;;;;;9.70;86.47;100446.20;1762052;81;20136;-78
2021/04/20 02:26:11;;;;;;;;;;;;;;;9.67;87.06;100433.45;1761790;81;21197;-81
2021/04/20 02:28:39;;;;;;;;;;;;;;;9.65;87.70;100438.38;1761626;81;20184;-80
2021/04/20 02:31:09;;;;;;;;;;;;;;;9.61;88.28;100437.75;1761636;81;20168;-77
2021/04/20 02:33:37;;;;;;;;;;;;;;;9.56;88.75;100435.48;1761495;81;20301;-77
2021/04/20 02:36:05;;;;;;;;;;;;;;;9.51;89.42;100433.63;1761693;81;20518;-78
2021/04/20 02:38:34;;;;;;;;;;;;;;;9.47;90.12;100432.66;1762212;81;20667;-78
2021/04/20 02:41:04;;;;;;;;;;;;;;;9.45;90.55;100435.33;1733964;81;20148;-78
2021/04/20 02:43:33;;;;;;;;;;;;;;;9.44;91.05;100440.16;1761731;81;20144;-80
2021/04/20 02:46:02;;;;;;;;;;;;;;;9.45;91.64;100441.80;1761589;81;20207;-78
2021/04/20 02:48:30;;;;;;;;;;;;;;;9.42;92.16;100442.00;1761509;81;20245;-77
2021/04/20 02:50:58;;;;;;;;;;;;;;;9.42;92.64;100429.52;1761560;81;21196;-76
2021/04/20 02:53:26;;;;;;;;;;;;;;;9.41;92.93;100429.17;1761601;81;20156;-77
2021/04/20 02:55:55;;;;;;;;;;;;;;;9.43;93.21;100429.89;1761648;81;20231;-79
2021/04/20 02:58:25;;;;;;;;;;;;;;;9.43;93.36;100433.31;1761558;81;20260;-76
2021/04/20 03:01:02;;;;;;;;;;;;;;;9.44;93.68;100425.92;1761645;81;20239;-77
2021/04/20 03:03:39;;;;;;;;;;;;;;;9.46;94.01;100429.69;1761678;81;21203;-78
2021/04/20 03:06:07;;;;;;;;;;;;;;;9.47;94.35;100429.60;1761627;81;20517;-77
2021/04/20 03:08:35;;;;;;;;;;;;;;;9.49;94.58;100430.33;1761650;81;20314;-77
2021/04/20 03:11:05;;;;;;;;;;;;;;;9.49;94.72;100429.03;1761731;81;21271;-77
2021/04/20 03:13:35;;;;;;;;;;;;;;;9.51;94.94;100437.97;1761605;81;20259;-77
2021/04/20 03:16:07;;;;;;;;;;;;;;;9.51;95.07;100434.09;1761466;81;21257;-77
2021/04/20 03:18:35;;;;;;;;;;;;;;;9.51;95.35;100436.22;1762187;81;20227;-79
2021/04/20 03:21:07;;;;;;;;;;;;;;;9.52;96.02;100438.35;1762485;81;20513;-78
2021/04/20 03:23:35;;;;;;;;;;;;;;;9.51;96.44;100440.56;1761833;81;20219;-76
2021/04/20 03:26:06;;;;;;;;;;;;;;;9.51;96.81;100443.99;1761927;81;20517;-73
2021/04/20 03:28:34;;;;;;;;;;;;;;;9.51;97.20;100441.86;1761862;81;21375;-73
2021/04/20 03:31:03;;;;;;;;;;;;;;;9.50;97.42;100446.70;1761966;81;20264;-79
2021/04/20 03:33:33;;;;;;;;;;;;;;;9.48;97.90;100446.78;1761863;81;20259;-78
2021/04/20 03:36:13;;;;;;;;;;;;;;;9.46;98.31;100443.47;1761861;81;20255;-77
2021/04/20 03:38:51;;;;;;;;;;;;;;;9.45;98.68;100450.03;1762507;81;20133;-80
2021/04/20 03:41:38;;;;;;;;;;;;;;;9.42;99.06;100460.59;1761901;81;21190;-75
2021/04/20 03:44:07;;;;;;;;;;;;;;;9.39;99.57;100455.15;1761932;81;20208;-77
2021/04/20 03:46:37;;;;;;;;;;;;;;;9.38;100.00;100458.66;1762646;81;20252;-77
2021/04/20 03:49:14;;;;;;;;;;;;;;;9.35;100.00;100460.16;1761894;81;20231;-79
2021/04/20 03:51:44;;;;;;;;;;;;;;;9.35;100.00;100465.83;1761927;81;20521;-77
2021/04/20 03:54:14;;;;;;;;;;;;;;;9.35;100.00;100464.04;1762010;81;21492;-80
2021/04/20 03:56:45;;;;;;;;;;;;;;;9.33;100.00;100471.55;1761963;81;20429;-77
2021/04/20 03:59:14;;;;;;;;;;;;;;;9.33;100.00;100471.55;1762535;81;20148;-80
2021/04/20 04:01:46;;;;;;;;;;;;;;;9.33;100.00;100472.84;1761665;81;20168;-74
2021/04/20 04:04:19;;;;;;;;;;;;;;;9.33;100.00;100472.84;1761923;81;20306;-75
2021/04/20 04:06:47;;;;;;;;;;;;;;;9.31;100.00;100469.07;1762614;81;21203;-82
2021/04/20 04:09:18;;;;;;;;;;;;;;;9.30;100.00;100469.98;1762400;81;20509;-75
2021/04/20 04:11:52;;;;;;;;;;;;;;;9.29;100.00;100465.73;1761797;81;20301;-77
2021/04/20 04:14:21;;;;;;;;;;;;;;;9.29;100.00;100470.91;1761866;81;20596;-78
2021/04/20 04:16:50;;;;;;;;;;;;;;;9.28;100.00;100469.27;1762068;81;20243;-81
2021/04/20 04:19:25;;;;;;;;;;;;;;;9.29;100.00;100470.07;1761968;81;21149;-76
2021/04/20 04:21:53;;;;;;;;;;;;;;;9.29;100.00;100472.66;1762101;81;20252;-79
2021/04/20 04:24:22;;;;;;;;;;;;;;;9.31;100.00;100475.55;1761823;81;20282;-80
2021/04/20 04:26:57;;;;;;;;;;;;;;;9.31;100.00;100476.84;1758073;81;20244;-79
2021/04/20 04:29:27;;;;;;;;;;;;;;;9.32;100.00;100473.76;1748141;81;20200;-77
2021/04/20 04:31:54;;;;;;;;;;;;;;;9.32;100.00;100481.06;1755282;81;21200;-77
2021/04/20 04:34:22;;;;;;;;;;;;;;;9.33;100.00;100478.02;1755211;81;20461;-79
2021/04/20 04:36:50;;;;;;;;;;;;;;;9.32;100.00;100481.52;1755436;81;20228;-75
2021/04/20 04:39:18;;;;;;;;;;;;;;;9.32;100.00;100479.77;1755199;81;20515;-79
2021/04/20 04:41:49;;;;;;;;;;;;;;;9.33;100.00;100476.72;1755640;81;20236;-79
2021/04/20 04:44:17;;;;;;;;;;;;;;;9.31;100.00;100479.42;1755386;81;21213;-75
2021/04/20 04:46:46;;;;;;;;;;;;;;;9.31;100.00;100483.31;1755229;81;20531;-77
2021/04/20 04:49:15;;;;;;;;;;;;;;;9.28;100.00;100480.92;1755428;81;20502;-83
2021/04/20 04:51:42;;;;;;;;;;;;;;;9.27;100.00;100484.88;1755620;81;20695;-77
2021/04/20 04:54:11;;;;;;;;;;;;;;;9.26;100.00;100490.98;1755644;81;20511;-75
2021/04/20 04:56:40;;;;;;;;;;;;;;;9.26;100.00;100490.98;1754997;81;21339;-79
2021/04/20 04:59:09;;;;;;;;;;;;;;;9.26;100.00;100493.57;1755066;81;20232;-79
2021/04/20 05:01:38;;;;;;;;;;;;;;;9.27;100.00;100495.24;1755159;81;20259;-78
2021/04/20 05:04:07;;;;;;;;;;;;;;;9.28;100.00;100496.45;1755125;81;20565;-78
2021/04/20 05:06:48;;;;;;;;;;;;;;;9.27;100.00;100497.38;1755047;81;20168;-79
2021/04/20 05:09:18;;;;;;;;;;;;;;;9.28;100.00;100499.05;1755188;81;21674;-81
2021/04/20 05:11:47;;;;;;;;;;;;;;;9.28;100.00;100502.09;1755163;81;20125;-77
2021/04/20 05:14:17;;;;;;;;;;;;;;;9.29;100.00;100505.86;1755521;81;20510;-78
2021/04/20 05:16:46;;;;;;;;;;;;;;;9.29;100.00;100502.44;1755811;81;20125;-77
2021/04/20 05:19:17;;;;;;;;;;;;;;;9.30;100.00;100499.77;1755515;81;20534;-77
2021/04/20 05:21:47;;;;;;;;;;;;;;;9.33;100.00;100500.03;1755395;81;21200;-77
2021/04/20 05:24:15;;;;;;;;;;;;;;;9.34;100.00;100501.24;1755305;81;20156;-78
2021/04/20 05:26:42;;;;;;;;;;;;;;;9.38;100.00;100504.47;1759338;81;20295;-80
2021/04/20 05:29:10;;;;;;;;;;;;;;;9.41;100.00;100503.78;1745052;81;20263;-78
2021/04/20 05:31:39;;;;;;;;;;;;;;;9.43;100.00;100509.72;1770747;80;20517;-78
2021/04/20 05:34:07;;;;;;;;;;;;;;;9.45;100.00;100507.02;1770932;81;21197;-80
2021/04/20 05:36:35;;;;;;;;;;;;;;;9.47;100.00;100507.77;1770730;81;20564;-76
2021/04/20 05:39:08;;;;;;;;;;;;;;;9.50;100.00;100512.75;1770587;80;20234;-74
2021/04/20 05:41:38;;;;;;;;;;;;;;;9.53;100.00;100512.09;1770831;80;20340;-79
2021/04/20 05:44:08;;;;;;;;;;;;;;;9.56;100.00;100511.06;1770586;81;20235;-76
2021/04/20 05:46:37;;;;;;;;;;;;;;;9.59;100.00;100504.39;1770654;81;22036;-77
2021/04/20 05:49:05;;;;;;;;;;;;;;;9.60;100.00;100509.11;1770635;80;20227;-77
2021/04/20 05:51:37;;;;;;;;;;;;;;;9.63;100.00;100512.33;1770715;80;20379;-76
2021/04/20 05:54:05;;;;;;;;;;;;;;;9.67;100.00;100512.97;1771875;80;20468;-77
2021/04/20 05:56:40;;;;;;;;;;;;;;;9.67;100.00;100515.07;1771283;80;20353;-78
2021/04/20 05:59:08;;;;;;;;;;;;;;;9.71;100.00;100513.11;1770211;80;21201;-77
2021/04/20 06:01:40;;;;;;;;;;;;;;;9.71;100.00;100515.70;1770697;80;20488;-77
2021/04/20 06:04:09;;;;;;;;;;;;;;;9.72;100.00;100523.86;1770432;80;20224;-74
2021/04/20 06:06:40;;;;;;;;;;;;;;;9.72;100.00;100522.56;1770822;80;20553;-74
2021/04/20 06:09:09;;;;;;;;;;;;;;;9.72;100.00;100518.22;1770452;80;20232;-77
2021/04/20 06:11:39;;;;;;;;;;;;;;;9.76;100.00;100523.57;1770550;80;21356;-74
2021/04/20 06:14:07;;;;;;;;;;;;;;;9.80;100.00;100525.02;1770644;80;20242;-75
2021/04/20 06:16:36;;;;;;;;;;;;;;;9.87;100.00;100523.69;1770827;81;20183;-78
2021/04/20 06:19:05;;;;;;;;;;;;;;;9.90;100.00;100529.13;1770483;80;20239;-77
2021/04/20 06:21:34;;;;;;;;;;;;;;;9.95;100.00;100529.22;1770653;80;20251;-79
2021/04/20 06:24:04;;;;;;;;;;;;;;;10.02;99.99;100525.73;1770522;81;22219;-80
2021/04/20 06:26:34;;;;;;;;;;;;;;;10.10;98.92;100529.50;1770121;80;20199;-80
2021/04/20 06:29:03;;;;;;;;;;;;;;;10.22;98.54;100533.53;1754938;81;20271;-75
2021/04/20 06:31:34;;;;;;;;;;;;;;;10.35;98.26;100530.02;1755302;81;20267;-80
2021/04/20 06:34:03;;;;;;;;;;;;;;;10.52;97.72;100537.51;1756521;81;20231;-78
2021/04/20 06:36:33;;;;;;;;;;;;;;;10.68;95.73;100533.86;1755068;81;21193;-80
2021/04/20 06:39:02;;;;;;;;;;;;;;;10.76;94.82;100535.45;1755536;81;20262;-80
2021/04/20 06:41:32;;;;;;;;;;;;;;;10.93;94.93;100532.08;1754574;81;20369;-78
2021/04/20 06:44:12;;;;;;;;;;;;;;;11.07;92.01;100537.12;1754838;81;20269;-78
2021/04/20 06:46:49;;;;;;;;;;;;;;;11.19;92.04;100535.45;1755495;81;20280;-75
2021/04/20 06:49:24;;;;;;;;;;;;;;;11.38;91.63;100538.87;1731187;81;22170;-79
2021/04/20 06:51:56;;;;;;;;;;;;;;;11.51;90.12;100541.78;1754461;81;20382;-80
2021/04/20 06:54:44;;;;;;;;;;;;;;;11.57;89.37;100540.51;1754508;76;20252;-82
2021/04/20 06:57:16;;;;;;;;;;;;;;;11.63;87.80;100540.90;1721432;82;20210;-79
2021/04/20 06:59:56;;;;;;;;;;;;;;;11.71;87.52;100535.16;1744671;82;20499;-78
2021/04/20 07:02:44;;;;;;;;;;;;;;;11.82;86.80;100546.09;1717313;82;21353;-74
2021/04/20 07:05:12;;;;;;;;;;;;;;;11.90;86.42;100541.17;1720855;82;20233;-78
2021/04/20 07:08:02;;;;;;;;;;;;;;;11.94;85.59;100544.72;1744305;82;20214;-82
2021/04/20 07:10:37;;;;;;;;;;;;;;;11.95;84.54;100544.25;1744372;82;20249;-75
2021/04/20 07:13:07;;;;;;;;;;;;;;;11.95;83.40;100545.55;1744242;82;20221;-76
2021/04/20 07:15:38;;;;;;;;;;;;;;;12.04;83.97;100547.47;1744394;82;20700;-78
2021/04/20 07:18:11;;;;;;;;;;;;;;;12.04;83.07;100548.30;1772785;79;20289;-81
2021/04/20 07:21:11;;;;;;;;;;;;;;;12.01;83.19;100547.70;1764594;81;20152;-73
2021/04/20 07:23:47;;;;;;;;;;;;;;;11.98;83.52;100558.33;1764673;81;20227;-74
2021/04/20 07:26:41;;;;;;;;;;;;;;;11.99;83.32;100562.13;1764294;81;20184;-83
2021/04/20 07:29:47;;;;;;;;;;;;;;;12.08;84.57;100561.45;1764286;81;21369;-76
2021/04/20 07:32:35;;;;;;;;;;;;;;;12.26;83.15;100558.41;1764084;81;20306;-74
2021/04/20 07:35:16;;;;;;;;;;;;;;;12.30;80.82;100558.08;1764002;80;20496;-73
2021/04/20 07:37:52;;;;;;;;;;;;;;;12.29;81.10;100558.18;1764260;81;20227;-79
2021/04/20 07:40:36;;;;;;;;;;;;;;;12.30;81.00;100562.45;1744855;81;20242;-74
2021/04/20 07:43:23;;;;;;;;;;;;;;;12.34;81.11;100561.28;1764268;80;21545;-75
2021/04/20 07:46:08;;;;;;;;;;;;;;;12.34;80.11;100565.19;1763641;81;20302;-77
2021/04/20 07:48:49;;;;;;;;;;;;;;;12.36;81.82;100562.83;1762816;81;20243;-77
2021/04/20 07:51:39;;;;;;;;;;;;;;;12.42;81.11;100570.63;1763695;81;20243;-73
2021/04/20 07:54:10;;;;;;;;;;;;;;;12.37;80.80;100564.96;1765896;78;20242;-77
2021/04/20 07:56:51;;;;;;;;;;;;;;;12.28;79.83;100578.19;1834974;77;21244;-73
2021/04/20 07:59:27;;;;;;;;;;;;;;;12.18;78.59;100577.21;1834812;78;20116;-75
2021/04/20 08:01:58;;;;;;;;;;;;;;;12.13;79.66;100577.53;1833529;78;20298;-74
2021/04/20 08:04:29;;;;;;;;;;;;;;;12.22;80.15;100579.92;1843261;77;20937;-78
2021/04/20 08:07:03;;;;;;;;;;;;;;;12.29;79.97;100581.12;1843891;78;20488;-74
2021/04/20 08:09:32;;;;;;;;;;;;;;;12.31;79.68;100574.53;1843840;78;21633;-75
2021/04/20 08:12:06;;;;;;;;;;;;;;;12.37;79.93;100572.77;1843656;78;20302;-76
2021/04/20 08:14:57;;;;;;;;;;;;;;;12.42;79.30;100582.34;1843990;77;20517;-76
2021/04/20 08:17:34;;;;;;;;;;;;;;;12.45;78.52;100581.64;1843498;78;20204;-74
2021/04/20 08:20:08;;;;;;;;;;;;;;;12.55;79.06;100587.83;1842038;78;20309;-77
2021/04/20 08:22:36;;;;;;;;;;;;;;;12.60;77.91;100584.89;1842573;78;21183;-74
2021/04/20 08:25:29;;;;;;;;;;;;;;;12.61;78.18;100590.43;1842798;78;20634;-75
2021/04/20 08:28:01;;;;;;;;;;;;;;;12.68;77.88;100598.98;1847995;76;20212;-75
2021/04/20 08:30:33;;;;;;;;;;;;;;;12.66;78.29;100597.44;1877477;76;20231;-76
2021/04/20 08:33:07;;;;;;;;;;;;;;;12.65;78.00;100596.61;1857922;76;20460;-76
2021/04/20 08:35:36;;;;;;;;;;;;;;;12.65;77.11;100603.11;1843999;77;21849;-75
2021/04/20 08:38:31;;;;;;;;;;;;;;;12.69;75.98;100604.55;1843798;78;20206;-77
2021/04/20 08:41:06;;;;;;;;;;;;;;;12.72;77.00;100604.78;1858088;76;20136;-77
2021/04/20 08:43:48;;;;;;;;;;;;;;;12.68;76.19;100611.16;1844811;76;20166;-78
2021/04/20 08:46:53;;;;;;;;;;;;;;;12.69;77.42;100608.45;1843669;77;20226;-74
2021/04/20 08:49:43;;;;;;;;;;;;;;;12.76;77.08;100615.33;1842994;78;22270;-76
2021/04/20 08:52:18;;;;;;;;;;;;;;;12.78;76.63;100609.99;1844128;77;20174;-78
2021/04/20 08:54:57;;;;;;;;;;;;;;;12.83;76.79;100613.09;1843008;77;20135;-79
2021/04/20 08:57:37;;;;;;;;;;;;;;;12.81;76.29;100610.59;1844063;77;20143;-77
2021/04/20 09:00:10;;;;;;;;;;;;;;;12.88;76.46;100616.16;1844194;78;20249;-81
2021/04/20 09:02:45;;;;;;;;;;;;;;;13.02;76.26;100612.84;1844348;77;21182;-77
2021/04/20 09:05:19;;;;;;;;;;;;;;;13.17;74.33;100611.72;1843709;77;20236;-74
2021/04/20 09:08:10;;;;;;;;;;;;;;;13.41;73.99;100612.04;1971465;72;20190;-80
2021/04/20 09:10:52;;;;;;;;;;;;;;;13.47;71.63;100621.98;1937090;74;20129;-79
2021/04/20 09:13:26;;;;;;;;;;;;;;;13.52;72.77;100620.70;1936237;73;21344;-77
2021/04/20 09:16:00;;;;;;;;;;;;;;;13.68;73.75;100621.14;1936879;73;20232;-80
2021/04/20 09:18:34;;;;;;;;;;;;;;;13.85;71.65;100620.27;1932450;73;20478;-78
2021/04/20 09:21:11;;;;;;;;;;;;;;;13.94;69.77;100621.67;1937249;74;20263;-79
2021/04/20 09:24:15;;;;;;;;;;;;;;;13.96;70.51;100624.13;1936879;74;20133;-76
2021/04/20 09:26:52;;;;;;;;;;;;;;;14.01;69.82;100620.67;1932473;74;21180;-79
2021/04/20 09:29:31;;;;;;;;;;;;;;;13.79;71.44;100622.88;1936068;74;20205;-76
2021/04/20 09:32:05;;;;;;;;;;;;;;;13.81;69.50;100631.89;1935915;74;20467;-77
2021/04/20 09:34:35;;;;;;;;;;;;;;;13.85;69.49;100628.90;1934658;74;20125;-79
2021/04/20 09:37:06;;;;;;;;;;;;;;;13.77;70.00;100626.09;1902746;74;20521;-81
2021/04/20 09:39:36;;;;;;;;;;;;;;;13.68;71.33;100631.58;1926528;73;22175;-77
2021/04/20 09:42:07;;;;;;;;;;;;;;;13.62;68.89;100625.55;1867583;75;20179;-77
2021/04/20 09:45:03;;;;;;;;;;;;;;;13.52;69.27;100628.52;1861401;77;20126;-81
2021/04/20 09:47:58;;;;;;;;;;;;;;;13.48;69.21;100631.47;1713581;83;20522;-78
2021/04/20 09:50:46;;;;;;;;;;;;;;;13.58;71.09;100629.80;1650981;87;20253;-74
2021/04/20 09:53:22;;;;;;;;;;;;;;;13.85;68.32;100624.98;1650248;87;21875;-82
2021/04/20 09:56:11;;;;;;;;;;;;;;;13.88;66.42;100634.38;1684024;84;20122;-77
2021/04/20 09:58:41;;;;;;;;;;;;;;;13.89;64.85;100631.62;1793354;80;20134;-78
2021/04/20 10:01:15;;;;;;;;;;;;;;;14.02;65.87;100624.94;1835544;78;20200;-78
2021/04/20 10:04:14;;;;;;;;;;;;;;;14.14;63.58;100630.47;1924345;73;20183;-74
2021/04/20 10:06:51;;;;;;;;;;;;;;;14.29;64.64;100627.94;1891715;76;20124;-78
2021/04/20 10:09:48;;;;;;;;;;;;;;;14.51;62.34;100634.38;1892562;76;21227;-74
2021/04/20 10:12:23;;;;;;;;;;;;;;;15.03;60.28;100630.02;1890967;74;20267;-74
2021/04/20 10:15:01;;;;;;;;;;;;;;;16.19;57.11;100622.34;1890968;76;20167;-77
2021/04/20 10:18:05;;;;;;;;;;;;;;;16.94;56.37;100632.06;1892452;76;20147;-78
2021/04/20 10:21:02;;;;;;;;;;;;;;;17.75;52.15;100626.52;1889454;76;20216;-78
2021/04/20 10:24:21;;;;;;;;;;;;;;;18.67;49.94;100630.48;1824473;78;21148;-78
2021/04/20 10:27:13;;;;;;;;;;;;;;;19.37;48.13;100621.98;1821230;77;20170;-75
2021/04/20 10:30:02;;;;;;;;;;;;;;;20.26;46.70;100624.87;1825374;78;20195;-76
2021/04/20 10:32:32;;;;;;;;;;;;;;;20.76;44.18;100615.45;1825334;78;20221;-75
2021/04/20 10:35:03;;;;;;;;;;;;;;;19.76;45.61;100630.20;1825330;78;20336;-77
2021/04/20 10:37:39;;;;;;;;;;;;;;;19.01;46.86;100631.86;1821533;78;21638;-78
2021/04/20 10:40:09;;;;;;;;;;;;;;;18.29;48.43;100634.27;1825355;78;20234;-74
2021/04/20 10:42:38;;;;;;;;;;;;;;;17.64;50.22;100631.98;1825076;77;20264;-78
2021/04/20 10:45:07;;;;;;;;;;;;;;;17.33;52.06;100628.78;1824945;78;20274;-74
2021/04/20 10:47:37;;;;;;;;;;;;;;;17.63;52.58;100636.89;1825424;78;20598;-74
2021/04/20 10:50:06;;;;;;;;;;;;;;;18.08;50.97;100628.98;1824355;78;20662;-77
2021/04/20 10:52:34;;;;;;;;;;;;;;;18.52;50.24;100623.31;1824908;78;20704;-77
2021/04/20 10:55:06;;;;;;;;;;;;;;;18.74;48.35;100624.13;1825128;78;20269;-78
2021/04/20 10:57:48;;;;;;;;;;;;;;;19.20;48.10;100636.06;1970913;72;20279;-79
2021/04/20 11:00:18;;;;;;;;;;;;;;;19.63;43.23;100630.66;1936754;74;20200;-77
2021/04/20 11:02:52;;;;;;;;;;;;;;;19.88;42.14;100631.55;1936488;74;22529;-74
2021/04/20 11:05:22;;;;;;;;;;;;;;;20.05;42.06;100628.79;1931479;73;20125;-78
2021/04/20 11:07:51;;;;;;;;;;;;;;;20.47;40.66;100631.80;1902467;75;20124;-77
2021/04/20 11:10:21;;;;;;;;;;;;;;;20.46;40.13;100627.02;1873258;76;20510;-77
2021/04/20 11:12:52;;;;;;;;;;;;;;;20.29;41.51;100628.03;1838172;76;20132;-77
2021/04/20 11:15:27;;;;;;;;;;;;;;;20.22;43.60;100624.86;1855356;77;21230;-76
2021/04/20 11:17:58;;;;;;;;;;;;;;;20.93;42.62;100627.63;1840604;78;20185;-76
2021/04/20 11:20:41;;;;;;;;;;;;;;;20.96;40.62;100628.09;1873290;76;20248;-78
2021/04/20 11:23:15;;;;;;;;;;;;;;;21.07;41.33;100629.55;1848911;76;20301;-79
2021/04/20 11:25:46;;;;;;;;;;;;;;;21.22;37.77;100630.52;1840234;78;20306;-77
2021/04/20 11:28:24;;;;;;;;;;;;;;;21.24;38.08;100623.77;1840108;78;22517;-77
2021/04/20 11:30:59;;;;;;;;;;;;;;;21.28;38.34;100628.55;1840437;78;20219;-77
2021/04/20 11:33:39;;;;;;;;;;;;;;;21.33;38.65;100621.41;1840661;78;20151;-78
2021/04/20 11:36:23;;;;;;;;;;;;;;;21.25;37.91;100625.42;1840177;78;20301;-74
2021/04/20 11:38:52;;;;;;;;;;;;;;;20.78;38.71;100621.38;1840433;78;20128;-79
2021/04/20 11:41:29;;;;;;;;;;;;;;;20.87;38.56;100622.51;1840745;78;22282;-77
2021/04/20 11:43:59;;;;;;;;;;;;;;;21.08;38.30;100617.53;1840397;78;20135;-78
2021/04/20 11:46:29;;;;;;;;;;;;;;;21.43;37.43;100618.91;1839557;78;20218;-76
2021/04/20 11:49:10;;;;;;;;;;;;;;;20.97;37.52;100621.83;1840662;78;20336;-74
2021/04/20 11:51:40;;;;;;;;;;;;;;;20.28;38.27;100618.47;1840645;78;20223;-75
2021/04/20 11:54:10;;;;;;;;;;;;;;;20.39;38.14;100620.76;1840631;78;21279;-78
2021/04/20 11:56:39;;;;;;;;;;;;;;;20.44;38.55;100629.02;1833688;78;20634;-75
2021/04/20 11:59:08;;;;;;;;;;;;;;;20.28;38.91;100626.38;1823501;78;20145;-76
2021/04/20 12:01:40;;;;;;;;;;;;;;;19.82;38.54;100629.08;1799989;78;20567;-76
2021/04/20 12:04:08;;;;;;;;;;;;;;;19.23;40.97;100622.11;1799607;78;20220;-78
2021/04/20 12:06:44;;;;;;;;;;;;;;;19.30;41.36;100623.63;1823407;78;21625;-78
2021/04/20 12:09:16;;;;;;;;;;;;;;;19.76;39.56;100621.82;1822126;78;20208;-75
2021/04/20 12:11:46;;;;;;;;;;;;;;;19.85;39.28;100626.11;1798952;78;20319;-72
2021/04/20 12:14:24;;;;;;;;;;;;;;;19.86;39.01;100625.62;1822912;78;20743;-78
2021/04/20 12:16:54;;;;;;;;;;;;;;;19.68;38.49;100627.57;1822637;78;20134;-76
2021/04/20 12:19:24;;;;;;;;;;;;;;;19.65;39.66;100623.94;1822855;78;22196;-74
2021/04/20 12:21:57;;;;;;;;;;;;;;;19.98;40.88;100615.94;1821453;78;20329;-74
2021/04/20 12:24:27;;;;;;;;;;;;;;;20.83;38.39;100617.27;1822498;78;20236;-76
2021/04/20 12:27:01;;;;;;;;;;;;;;;21.31;38.56;100626.05;1822680;78;20164;-76
2021/04/20 12:29:40;;;;;;;;;;;;;;;20.58;39.60;100623.05;1822640;78;20172;-74
2021/04/20 12:32:15;;;;;;;;;;;;;;;19.71;40.00;100624.13;1814850;78;21277;-76
2021/04/20 12:34:44;;;;;;;;;;;;;;;19.15;41.01;100622.55;1822723;78;20109;-79
2021/04/20 12:37:17;;;;;;;;;;;;;;;19.22;41.72;100615.19;1822587;78;20212;-78
2021/04/20 12:39:48;;;;;;;;;;;;;;;19.49;41.21;100621.59;1796476;78;20296;-77
2021/04/20 12:42:19;;;;;;;;;;;;;;;19.43;41.28;100622.72;1799649;78;20227;-77
2021/04/20 12:44:51;;;;;;;;;;;;;;;19.35;41.37;100623.95;1822501;78;21374;-77
2021/04/20 12:47:19;;;;;;;;;;;;;;;19.39;40.82;100633.19;1822671;78;20156;-78
2021/04/20 12:49:49;;;;;;;;;;;;;;;19.61;39.84;100640.55;1822626;78;20140;-80
2021/04/20 12:52:17;;;;;;;;;;;;;;;19.66;40.97;100644.83;1822625;78;20248;-76
2021/04/20 12:54:48;;;;;;;;;;;;;;;19.66;41.77;100647.95;1822673;78;20208;-73
2021/04/20 12:57:21;;;;;;;;;;;;;;;19.27;42.96;100640.52;1821379;78;21434;-74
2021/04/20 13:03:21;;;;;;;;;;;;;;;18.30;45.54;100648.23;1799104;79;20479;-79
2021/04/20 13:05:50;;;;;;;;;;;;;;;17.50;49.01;100643.77;1769004;81;20329;-78
2021/04/20 13:08:19;;;;;;;;;;;;;;;17.29;50.27;100660.23;1805032;79;20508;-75
2021/04/20 13:10:52;;;;;;;;;;;;;;;16.96;50.58;100656.33;1805810;79;22156;-78
2021/04/20 13:13:21;;;;;;;;;;;;;;;16.55;52.20;100675.02;1805665;79;20127;-76